createdAt,value
2023-01-17T00:01:20.881Z,0.23
2023-01-17T00:04:45.222Z,0.60
2023-01-17T00:07:32.064Z,0.60
2023-01-17T00:10:02.589Z,0.37
2023-01-17T00:12:31.980Z,0.40
2023-01-17T00:15:00.702Z,0.40
2023-01-17T00:17:30.098Z,0.40
2023-01-17T00:20:19.245Z,0.40
2023-01-17T00:23:05.141Z,0.30
2023-01-17T00:25:53.186Z,0.60
2023-01-17T00:28:20.108Z,0.40
2023-01-17T00:30:46.822Z,0.33
2023-01-17T00:33:13.490Z,0.30
2023-01-17T00:35:41.749Z,0.40
2023-01-17T00:38:10.251Z,0.33
2023-01-17T00:40:39.626Z,0.57
2023-01-17T00:43:26.121Z,0.40
2023-01-17T00:46:11.777Z,0.57
2023-01-17T00:48:58.032Z,0.37
2023-01-17T00:51:52.249Z,0.40
2023-01-17T00:54:38.107Z,0.50
2023-01-17T00:57:24.731Z,0.60
2023-01-17T01:00:10.526Z,0.40
2023-01-17T01:02:56.900Z,0.40
2023-01-17T01:05:42.537Z,0.40
2023-01-17T01:12:03.593Z,0.40
2023-01-17T01:14:48.791Z,0.60
2023-01-17T01:17:43.076Z,0.50
2023-01-17T01:23:49.746Z,0.30
2023-01-17T01:30:29.873Z,0.30
2023-01-17T01:33:15.172Z,0.60
2023-01-17T01:36:08.523Z,0.50
2023-01-17T01:39:04.475Z,0.40
2023-01-17T01:45:26.634Z,0.37
2023-01-17T01:47:57.762Z,0.53
2023-01-17T01:50:28.049Z,0.20
2023-01-17T01:53:02.958Z,0.20
2023-01-17T01:55:35.551Z,0.50
2023-01-17T02:01:58.834Z,0.30
2023-01-17T02:07:45.668Z,0.30
2023-01-17T02:14:27.017Z,0.20
2023-01-17T02:20:42.829Z,0.30
2023-01-17T02:27:51.735Z,0.40
2023-01-17T02:34:25.883Z,0.30
2023-01-17T02:37:01.934Z,0.30
2023-01-17T02:39:35.458Z,0.40
2023-01-17T02:42:07.430Z,0.40
2023-01-17T02:44:41.606Z,0.20
2023-01-17T02:47:22.800Z,0.40
2023-01-17T02:49:58.978Z,0.40
2023-01-17T02:52:42.883Z,0.50
2023-01-17T02:55:22.545Z,0.37
2023-01-17T02:58:18.876Z,0.30
2023-01-17T03:01:19.581Z,0.20
2023-01-17T03:03:54.439Z,0.30
2023-01-17T03:06:31.795Z,0.20
2023-01-17T03:08:59.451Z,0.30
2023-01-17T03:11:28.155Z,0.60
2023-01-17T03:13:57.176Z,0.30
2023-01-17T03:16:49.935Z,0.40
2023-01-17T03:19:23.846Z,0.30
2023-01-17T03:21:52.841Z,0.30
2023-01-17T03:24:34.413Z,0.50
2023-01-17T03:27:02.037Z,0.30
2023-01-17T03:29:29.713Z,0.20
2023-01-17T03:31:58.247Z,0.30
2023-01-17T03:34:25.946Z,0.40
2023-01-17T03:36:54.954Z,0.50
2023-01-17T03:39:22.586Z,0.30
2023-01-17T03:41:50.199Z,0.40
2023-01-17T03:44:19.039Z,0.40
2023-01-17T03:46:47.766Z,0.40
2023-01-17T03:49:16.603Z,0.40
2023-01-17T03:51:44.451Z,0.43
2023-01-17T03:54:13.467Z,0.40
2023-01-17T03:56:41.164Z,0.40
2023-01-17T03:59:09.705Z,0.40
2023-01-17T04:01:38.180Z,0.37
2023-01-17T04:04:06.105Z,0.60
2023-01-17T04:06:33.767Z,0.67
2023-01-17T04:09:01.393Z,0.57
2023-01-17T04:11:30.419Z,0.60
2023-01-17T04:13:58.051Z,0.53
2023-01-17T04:16:29.499Z,0.83
2023-01-17T04:18:57.267Z,1.40
2023-01-17T04:21:25.309Z,0.50
2023-01-17T04:23:52.958Z,0.47
2023-01-17T04:26:20.659Z,0.67
2023-01-17T04:28:49.668Z,0.33
2023-01-17T04:31:17.830Z,0.70
2023-01-17T04:33:45.515Z,0.97
2023-01-17T04:36:13.190Z,1.47
2023-01-17T04:38:40.847Z,0.70
2023-01-17T04:41:08.494Z,0.60
2023-01-17T04:43:36.200Z,0.40
2023-01-17T04:46:09.890Z,0.60
2023-01-17T04:48:40.024Z,0.30
2023-01-17T04:51:07.830Z,0.80
2023-01-17T04:53:35.519Z,0.40
2023-01-17T04:56:03.660Z,0.40
2023-01-17T04:58:33.278Z,0.33
2023-01-17T05:01:04.044Z,0.40
2023-01-17T05:03:33.606Z,0.50
2023-01-17T05:06:02.238Z,1.20
2023-01-17T05:08:29.931Z,0.63
2023-01-17T05:10:57.808Z,0.60
2023-01-17T05:13:25.652Z,0.40
2023-01-17T05:15:53.423Z,0.37
2023-01-17T05:18:21.143Z,0.70
2023-01-17T05:20:50.144Z,0.40
2023-01-17T05:23:17.875Z,0.50
2023-01-17T05:25:45.548Z,0.60
2023-01-17T05:28:14.235Z,0.63
2023-01-17T05:30:43.034Z,1.00
2023-01-17T05:33:11.224Z,0.60
2023-01-17T05:35:39.349Z,1.03
2023-01-17T05:38:08.380Z,0.50
2023-01-17T05:40:36.417Z,0.40
2023-01-17T05:43:04.552Z,0.50
2023-01-17T05:45:33.689Z,0.70
2023-01-17T05:48:02.265Z,0.60
2023-01-17T05:50:33.615Z,0.73
2023-01-17T05:53:02.969Z,1.10
2023-01-17T05:55:32.871Z,0.57
2023-01-17T05:58:01.047Z,0.80
2023-01-17T06:00:30.820Z,0.60
2023-01-17T06:03:00.657Z,0.67
2023-01-17T06:05:29.964Z,1.30
2023-01-17T06:07:57.794Z,1.07
2023-01-17T06:10:26.585Z,1.30
2023-01-17T06:13:03.211Z,1.20
2023-01-17T06:15:30.894Z,1.30
2023-01-17T06:17:58.579Z,0.70
2023-01-17T06:20:27.319Z,0.60
2023-01-17T06:22:55.344Z,0.53
2023-01-17T06:25:24.919Z,0.43
2023-01-17T06:27:54.704Z,0.83
2023-01-17T06:30:24.243Z,0.60
2023-01-17T06:32:55.458Z,0.53
2023-01-17T06:35:23.228Z,0.57
2023-01-17T06:37:55.482Z,1.40
2023-01-17T06:40:23.558Z,0.80
2023-01-17T06:42:51.811Z,0.50
2023-01-17T06:45:20.651Z,0.77
2023-01-17T06:47:49.748Z,0.90
2023-01-17T06:50:17.918Z,0.80
2023-01-17T06:52:56.118Z,1.43
2023-01-17T06:55:24.043Z,0.90
2023-01-17T06:57:52.792Z,1.00
2023-01-17T07:00:21.034Z,1.23
2023-01-17T07:02:51.212Z,1.00
2023-01-17T07:05:19.647Z,1.17
2023-01-17T07:07:47.561Z,1.00
2023-01-17T07:10:16.116Z,1.10
2023-01-17T07:12:43.973Z,1.10
2023-01-17T07:15:12.542Z,1.20
2023-01-17T07:17:41.486Z,1.00
2023-01-17T07:20:11.831Z,0.97
2023-01-17T07:22:39.508Z,1.07
2023-01-17T07:25:08.215Z,1.27
2023-01-17T07:27:35.931Z,1.10
2023-01-17T07:30:03.703Z,1.03
2023-01-17T07:32:31.411Z,1.20
2023-01-17T07:34:59.103Z,1.47
2023-01-17T07:37:28.211Z,1.77
2023-01-17T07:39:56.102Z,1.20
2023-01-17T07:42:24.487Z,1.60
2023-01-17T07:44:52.294Z,1.20
2023-01-17T07:47:20.112Z,1.50
2023-01-17T07:49:47.806Z,0.93
2023-01-17T07:52:17.991Z,0.80
2023-01-17T07:54:48.241Z,0.90
2023-01-17T07:57:15.864Z,1.07
2023-01-17T07:59:43.530Z,1.07
2023-01-17T08:02:17.968Z,0.63
2023-01-17T08:04:45.978Z,1.10
2023-01-17T08:07:14.386Z,1.40
2023-01-17T08:09:42.764Z,1.13
2023-01-17T08:12:11.799Z,1.47
2023-01-17T08:14:39.525Z,1.00
2023-01-17T08:17:07.977Z,0.90
2023-01-17T08:19:35.641Z,1.13
2023-01-17T08:22:18.784Z,1.30
2023-01-17T08:24:46.460Z,0.87
2023-01-17T08:27:15.502Z,1.00
2023-01-17T08:29:47.007Z,1.10
2023-01-17T08:32:14.879Z,0.93
2023-01-17T08:34:43.062Z,0.73
2023-01-17T08:37:10.761Z,0.87
2023-01-17T08:39:38.458Z,1.00
2023-01-17T08:42:06.272Z,0.77
2023-01-17T08:44:35.453Z,0.60
2023-01-17T08:47:03.090Z,0.97
2023-01-17T08:49:30.764Z,1.00
2023-01-17T08:51:58.610Z,0.60
2023-01-17T08:54:26.271Z,1.10
2023-01-17T08:56:55.583Z,0.70
2023-01-17T08:59:23.600Z,0.70
2023-01-17T09:01:52.815Z,0.70
2023-01-17T09:04:20.637Z,0.60
2023-01-17T09:06:48.886Z,1.03
2023-01-17T09:09:18.145Z,0.90
2023-01-17T09:11:45.842Z,0.70
2023-01-17T09:14:14.046Z,0.97
2023-01-17T09:16:41.788Z,1.00
2023-01-17T09:19:11.172Z,0.40
2023-01-17T09:21:38.904Z,0.50
2023-01-17T09:24:07.114Z,0.40
2023-01-17T09:26:35.006Z,0.40
2023-01-17T09:29:02.717Z,0.77
2023-01-17T09:31:30.439Z,0.37
2023-01-17T09:33:59.183Z,0.50
2023-01-17T09:36:31.775Z,0.50
2023-01-17T09:38:59.907Z,0.60
2023-01-17T09:41:31.197Z,0.40
2023-01-17T09:44:06.982Z,0.30
2023-01-17T09:46:40.058Z,0.30
2023-01-17T09:49:09.271Z,0.30
2023-01-17T09:51:38.544Z,0.50
2023-01-17T09:54:06.584Z,0.30
2023-01-17T09:56:39.444Z,0.50
2023-01-17T09:59:19.217Z,0.50
2023-01-17T10:01:56.187Z,0.40
2023-01-17T10:04:41.318Z,0.40
2023-01-17T10:07:19.317Z,0.40
2023-01-17T10:10:05.055Z,0.87
2023-01-17T10:12:41.014Z,0.70
2023-01-17T10:15:32.638Z,0.60
2023-01-17T10:18:28.760Z,0.30
2023-01-17T10:21:04.222Z,0.63
2023-01-17T10:23:59.239Z,0.50
2023-01-17T10:26:28.381Z,0.60
2023-01-17T10:29:02.174Z,0.70
2023-01-17T10:31:35.147Z,0.50
2023-01-17T10:34:13.033Z,0.93
2023-01-17T10:36:44.076Z,0.83
2023-01-17T10:39:20.249Z,0.40
2023-01-17T10:41:55.199Z,0.70
2023-01-17T10:44:30.091Z,0.77
2023-01-17T10:47:13.581Z,1.07
2023-01-17T10:49:44.843Z,1.20
2023-01-17T10:52:20.178Z,0.50
2023-01-17T10:54:58.979Z,0.60
2023-01-17T10:57:31.311Z,0.30
2023-01-17T11:00:01.370Z,0.80
2023-01-17T11:02:33.952Z,0.80
2023-01-17T11:05:05.673Z,0.90
2023-01-17T11:07:33.439Z,1.20
2023-01-17T11:10:02.553Z,0.40
2023-01-17T11:12:31.897Z,0.90
2023-01-17T11:15:06.844Z,0.60
2023-01-17T11:17:37.314Z,0.43
2023-01-17T11:20:15.623Z,0.47
2023-01-17T11:22:46.948Z,0.60
2023-01-17T11:25:23.193Z,0.40
2023-01-17T11:28:00.582Z,0.40
2023-01-17T11:30:30.691Z,0.30
2023-01-17T11:32:59.882Z,0.50
2023-01-17T11:35:30.039Z,0.30
2023-01-17T11:38:06.676Z,0.30
2023-01-17T11:40:39.657Z,0.40
2023-01-17T11:43:21.966Z,0.30
2023-01-17T11:46:03.816Z,0.40
2023-01-17T11:48:37.149Z,0.30
2023-01-17T11:51:11.814Z,0.60
2023-01-17T11:53:47.059Z,0.30
2023-01-17T11:56:23.410Z,0.40
2023-01-17T11:58:52.076Z,0.37
2023-01-17T12:01:34.784Z,0.30
2023-01-17T12:04:20.958Z,0.40
2023-01-17T12:06:58.942Z,0.43
2023-01-17T12:09:35.974Z,0.50
2023-01-17T12:12:44.610Z,0.40
2023-01-17T12:15:30.115Z,0.50
2023-01-17T12:18:18.970Z,0.40
2023-01-17T12:21:01.948Z,0.43
2023-01-17T12:23:47.381Z,0.30
2023-01-17T12:26:27.613Z,0.70
2023-01-17T12:29:19.851Z,0.43
2023-01-17T12:31:57.186Z,0.40
2023-01-17T12:34:29.288Z,0.63
2023-01-17T12:37:02.023Z,0.83
2023-01-17T12:39:37.032Z,0.47
2023-01-17T12:42:13.433Z,0.40
2023-01-17T12:44:52.803Z,0.50
2023-01-17T12:47:22.125Z,0.53
2023-01-17T12:49:59.063Z,0.43
2023-01-17T12:52:42.479Z,0.70
2023-01-17T12:55:17.627Z,0.50
2023-01-17T12:57:51.677Z,0.30
2023-01-17T13:00:25.501Z,0.50
2023-01-17T13:02:58.121Z,0.50
2023-01-17T13:05:32.993Z,0.30
2023-01-17T13:08:07.531Z,0.87
2023-01-17T13:10:43.554Z,0.43
2023-01-17T13:13:22.103Z,0.40
2023-01-17T13:15:55.292Z,0.50
2023-01-17T13:18:26.989Z,0.60
2023-01-17T13:21:09.540Z,0.50
2023-01-17T13:23:51.009Z,0.70
2023-01-17T13:26:26.558Z,0.97
2023-01-17T13:29:06.025Z,0.53
2023-01-17T13:31:47.868Z,1.30
2023-01-17T13:34:52.879Z,0.90
2023-01-17T13:37:52.215Z,0.40
2023-01-17T13:40:29.904Z,0.80
2023-01-17T13:43:00.625Z,0.50
2023-01-17T13:45:30.808Z,0.47
2023-01-17T13:48:26.266Z,0.70
2023-01-17T13:50:56.440Z,0.80
2023-01-17T13:53:59.944Z,0.60
2023-01-17T13:56:36.143Z,1.17
2023-01-17T13:59:28.097Z,0.40
2023-01-17T14:01:56.158Z,0.73
2023-01-17T14:04:26.640Z,0.77
2023-01-17T14:07:01.165Z,0.63
2023-01-17T14:09:39.065Z,0.50
2023-01-17T14:12:25.239Z,0.83
2023-01-17T14:15:02.184Z,0.73
2023-01-17T14:17:59.109Z,3.20
2023-01-17T14:20:40.472Z,0.50
2023-01-17T14:23:23.836Z,0.60
2023-01-17T14:25:52.648Z,0.80
2023-01-17T14:28:30.675Z,1.00
2023-01-17T14:31:03.373Z,0.80
2023-01-17T14:33:36.487Z,0.60
2023-01-17T14:36:08.347Z,0.90
2023-01-17T14:38:43.766Z,0.70
2023-01-17T14:41:16.322Z,0.50
2023-01-17T14:43:45.234Z,0.90
2023-01-17T14:46:19.916Z,0.60
2023-01-17T14:48:47.691Z,1.17
2023-01-17T14:51:21.288Z,1.10
2023-01-17T14:53:56.751Z,0.87
2023-01-17T14:56:25.927Z,0.80
2023-01-17T14:59:13.052Z,0.83
2023-01-17T15:01:41.279Z,0.70
2023-01-17T15:04:24.743Z,0.63
2023-01-17T15:06:54.566Z,0.97
2023-01-17T15:09:24.913Z,3.40
2023-01-17T15:11:53.824Z,4.87
2023-01-17T15:14:24.483Z,12.43
2023-01-17T15:16:53.412Z,5.97
2023-01-17T15:19:22.035Z,9.63
2023-01-17T15:21:53.928Z,8.33
2023-01-17T15:24:26.575Z,3.53
2023-01-17T15:26:54.663Z,2.23
2023-01-17T15:29:26.472Z,2.53
2023-01-17T15:31:59.105Z,1.50
2023-01-17T15:34:29.778Z,5.80
2023-01-17T15:36:59.596Z,2.00
2023-01-17T15:39:31.578Z,2.90
2023-01-17T15:42:01.164Z,2.63
2023-01-17T15:44:50.256Z,0.93
2023-01-17T15:47:30.416Z,1.20
2023-01-17T15:49:58.468Z,1.20
2023-01-17T15:52:26.560Z,1.73
2023-01-17T15:54:59.838Z,1.30
2023-01-17T15:57:31.718Z,0.70
2023-01-17T16:00:06.072Z,1.30
2023-01-17T16:02:44.071Z,1.47
2023-01-17T16:05:41.669Z,0.70
2023-01-17T16:08:31.080Z,1.70
2023-01-17T16:11:02.899Z,1.10
2023-01-17T16:13:33.068Z,1.23
2023-01-17T16:16:14.789Z,1.20
2023-01-17T16:18:43.455Z,1.53
2023-01-17T16:21:19.686Z,1.07
2023-01-17T16:23:48.128Z,1.20
2023-01-17T16:26:17.861Z,1.00
2023-01-17T16:28:59.795Z,1.37
2023-01-17T16:31:27.610Z,1.27
2023-01-17T16:33:56.054Z,1.20
2023-01-17T16:36:27.737Z,1.33
2023-01-17T16:39:02.428Z,1.33
2023-01-17T16:41:32.597Z,1.53
2023-01-17T16:44:10.871Z,1.47
2023-01-17T16:46:39.719Z,1.17
2023-01-17T16:49:09.535Z,1.53
2023-01-17T16:51:37.453Z,1.20
2023-01-17T16:54:05.317Z,1.60
2023-01-17T16:56:35.567Z,2.10
2023-01-17T16:59:03.497Z,1.80
2023-01-17T17:01:31.360Z,1.70
2023-01-17T17:04:01.906Z,1.13
2023-01-17T17:06:31.356Z,1.13
2023-01-17T17:08:59.766Z,1.33
2023-01-17T17:11:27.502Z,1.70
2023-01-17T17:13:56.732Z,1.30
2023-01-17T17:16:26.741Z,1.73
2023-01-17T17:18:56.157Z,1.13
2023-01-17T17:21:24.002Z,1.93
2023-01-17T17:23:56.566Z,1.50
2023-01-17T17:26:24.687Z,2.07
2023-01-17T17:28:53.453Z,2.00
2023-01-17T17:31:22.759Z,1.87
2023-01-17T17:33:50.950Z,1.73
2023-01-17T17:36:18.611Z,2.13
2023-01-17T17:38:52.985Z,2.63
2023-01-17T17:41:22.748Z,2.67
2023-01-17T17:43:51.266Z,2.77
2023-01-17T17:46:21.464Z,3.27
2023-01-17T17:48:50.808Z,2.63
2023-01-17T17:51:24.370Z,2.30
2023-01-17T17:53:53.098Z,2.97
2023-01-17T17:56:23.555Z,2.50
2023-01-17T17:58:51.642Z,2.43
2023-01-17T18:01:19.501Z,3.20
2023-01-17T18:03:48.254Z,5.80
2023-01-17T18:06:18.285Z,4.00
2023-01-17T18:08:46.424Z,3.60
2023-01-17T18:11:18.551Z,3.97
2023-01-17T18:13:50.320Z,2.37
2023-01-17T18:16:28.354Z,3.23
2023-01-17T18:18:59.045Z,2.93
2023-01-17T18:21:30.429Z,3.50
2023-01-17T18:23:59.834Z,3.83
2023-01-17T18:26:30.615Z,3.07
2023-01-17T18:28:59.587Z,3.10
2023-01-17T18:31:30.919Z,2.50
2023-01-17T18:34:02.072Z,2.60
2023-01-17T18:36:34.652Z,3.20
2023-01-17T18:39:05.530Z,2.90
2023-01-17T18:41:33.234Z,2.70
2023-01-17T18:44:04.308Z,3.23
2023-01-17T18:46:32.600Z,2.80
2023-01-17T18:49:00.366Z,2.93
2023-01-17T18:51:31.798Z,1.93
2023-01-17T18:54:05.351Z,4.70
2023-01-17T18:56:35.112Z,7.70
2023-01-17T18:59:03.196Z,3.90
2023-01-17T19:01:35.480Z,3.67
2023-01-17T19:04:05.733Z,2.80
2023-01-17T19:06:35.800Z,1.97
2023-01-17T19:09:05.543Z,2.20
2023-01-17T19:11:33.522Z,2.37
2023-01-17T19:14:01.503Z,3.83
2023-01-17T19:16:31.116Z,4.40
2023-01-17T19:19:02.983Z,4.00
2023-01-17T19:21:33.467Z,3.63
2023-01-17T19:24:01.490Z,3.70
2023-01-17T19:26:30.654Z,3.43
2023-01-17T19:29:00.022Z,4.63
2023-01-17T19:31:29.699Z,29.03
2023-01-17T19:33:59.408Z,14.40
2023-01-17T19:36:30.271Z,7.00
2023-01-17T19:39:06.266Z,3.70
2023-01-17T19:41:38.257Z,3.70
2023-01-17T19:44:08.131Z,3.43
2023-01-17T19:46:39.066Z,3.50
2023-01-17T19:49:08.134Z,3.10
2023-01-17T19:51:36.194Z,3.27
2023-01-17T19:54:06.382Z,5.70
2023-01-17T19:56:35.819Z,18.17
2023-01-17T19:59:03.571Z,10.10
2023-01-17T20:01:33.372Z,11.27
2023-01-17T20:04:02.837Z,6.77
2023-01-17T20:06:32.347Z,7.47
2023-01-17T20:09:00.636Z,5.80
2023-01-17T20:11:29.661Z,5.20
2023-01-17T20:14:00.504Z,5.40
2023-01-17T20:16:32.787Z,4.73
2023-01-17T20:19:02.762Z,4.03
2023-01-17T20:21:31.613Z,4.37
2023-01-17T20:24:02.986Z,4.03
2023-01-17T20:26:34.813Z,4.87
2023-01-17T20:29:07.337Z,5.30
2023-01-17T20:31:39.172Z,5.50
2023-01-17T20:34:08.533Z,5.43
2023-01-17T20:36:36.867Z,4.57
2023-01-17T20:39:05.699Z,5.40
2023-01-17T20:41:37.309Z,5.50
2023-01-17T20:44:08.459Z,6.07
2023-01-17T20:46:40.949Z,9.70
2023-01-17T20:49:13.271Z,10.33
2023-01-17T20:51:41.443Z,13.43
2023-01-17T20:54:12.948Z,11.73
2023-01-17T20:56:41.099Z,8.70
2023-01-17T20:59:14.418Z,5.80
2023-01-17T21:01:43.615Z,5.43
2023-01-17T21:04:12.853Z,5.70
2023-01-17T21:06:42.007Z,5.43
2023-01-17T21:09:12.878Z,4.40
2023-01-17T21:11:40.672Z,4.97
2023-01-17T21:14:09.641Z,5.43
2023-01-17T21:16:37.650Z,4.37
2023-01-17T21:19:05.905Z,4.93
2023-01-17T21:21:33.782Z,4.17
2023-01-17T21:24:01.419Z,4.03
2023-01-17T21:26:29.958Z,3.73
2023-01-17T21:29:00.025Z,4.50
2023-01-17T21:31:33.433Z,4.27
2023-01-17T21:34:03.019Z,4.20
2023-01-17T21:36:33.535Z,4.30
2023-01-17T21:39:05.797Z,4.40
2023-01-17T21:41:35.787Z,3.53
2023-01-17T21:44:07.843Z,3.30
2023-01-17T21:46:39.228Z,3.73
2023-01-17T21:49:07.223Z,2.90
2023-01-17T21:51:58.708Z,3.63
2023-01-17T21:54:45.588Z,4.23
2023-01-17T21:57:33.384Z,2.97
2023-01-17T22:00:01.064Z,4.07
2023-01-17T22:02:30.105Z,4.23
2023-01-17T22:04:57.727Z,3.60
2023-01-17T22:07:26.912Z,3.27
2023-01-17T22:09:56.899Z,2.50
2023-01-17T22:12:24.696Z,2.90
2023-01-17T22:14:52.731Z,3.53
2023-01-17T22:17:20.888Z,2.90
2023-01-17T22:19:49.964Z,2.20
2023-01-17T22:22:17.555Z,2.70
2023-01-17T22:24:45.191Z,2.73
2023-01-17T22:27:13.594Z,2.00
2023-01-17T22:29:41.374Z,1.87
2023-01-17T22:32:09.205Z,2.17
2023-01-17T22:34:36.800Z,2.40
2023-01-17T22:37:09.931Z,2.07
2023-01-17T22:39:38.205Z,1.83
2023-01-17T22:42:06.111Z,2.00
2023-01-17T22:44:33.804Z,2.20
2023-01-17T22:47:01.976Z,2.00
2023-01-17T22:49:29.605Z,2.03
2023-01-17T22:51:57.235Z,1.80
2023-01-17T22:54:26.244Z,1.57
2023-01-17T22:56:54.076Z,1.20
2023-01-17T22:59:21.652Z,2.37
2023-01-17T23:01:49.298Z,1.73
2023-01-17T23:04:17.253Z,1.60
2023-01-17T23:06:44.916Z,1.90
2023-01-17T23:09:14.576Z,1.73
2023-01-17T23:11:46.913Z,1.87
2023-01-17T23:14:16.913Z,1.70
2023-01-17T23:17:05.320Z,1.87
2023-01-17T23:19:35.724Z,1.50
2023-01-17T23:22:18.996Z,1.60
2023-01-17T23:24:49.577Z,1.80
2023-01-17T23:27:34.819Z,2.20
2023-01-17T23:30:03.027Z,1.80
2023-01-17T23:32:30.634Z,1.97
2023-01-17T23:34:58.252Z,1.60
2023-01-17T23:37:51.122Z,1.70
2023-01-17T23:40:20.005Z,1.77
2023-01-17T23:43:06.880Z,1.70
2023-01-17T23:45:38.973Z,1.60
2023-01-17T23:48:09.560Z,2.00
2023-01-17T23:50:37.643Z,1.10
2023-01-17T23:53:08.717Z,1.37
2023-01-17T23:55:37.846Z,1.47
2023-01-17T23:58:08.547Z,1.70
